Time;durP1;ratioP1;P1;durP2;ratioP2;P2;SDS_P1;SDS_P2;PMS_P1;PMS_P2;Temp;Humidity;BMP_temperature;BMP_pressure;BME280_temperature;BME280_humidity;BME280_pressure;Samples;Min_cycle;Max_cycle;Signal;HPM_P1;HPM_P2
2021/12/17 00:00:59;;;;;;;40.75;37.03;;;;;;;-141.48;100.00;69781.59;5258077;28;20119;-87
2021/12/17 00:04:02;;;;;;;38.85;35.20;;;;;;;-141.48;100.00;69781.59;5259293;28;20028;-85
2021/12/17 00:06:43;;;;;;;40.70;36.92;;;;;;;-141.48;100.00;69781.59;5258412;28;20505;-84
2021/12/17 00:09:13;;;;;;;38.25;35.30;;;;;;;-141.48;100.00;69781.59;5258820;28;20493;-84
2021/12/17 00:11:43;;;;;;;36.25;33.40;;;;;;;-141.48;100.00;69781.59;5259258;28;20059;-84
2021/12/17 00:14:24;;;;;;;38.75;35.25;;;;;;;-141.48;100.00;69781.59;5258710;28;20017;-86
2021/12/17 00:17:02;;;;;;;38.38;35.13;;;;;;;-141.48;100.00;69781.59;5258950;28;20126;-84
2021/12/17 00:52:35;;;;;;;72.60;43.08;;;;;;;-141.48;100.00;69781.59;5255179;28;20119;-85
2021/12/17 00:55:08;;;;;;;59.97;45.55;;;;;;;-141.48;100.00;69781.59;5240217;28;20047;-84
2021/12/17 00:57:43;;;;;;;49.38;43.35;;;;;;;-141.48;100.00;69781.59;5261202;28;20040;-86
2021/12/17 01:00:18;;;;;;;55.40;45.75;;;;;;;-141.48;100.00;69781.59;5261516;28;20028;-85
2021/12/17 01:02:49;;;;;;;55.65;45.40;;;;;;;-141.48;100.00;69781.59;5261427;28;20025;-84
2021/12/17 01:05:25;;;;;;;72.07;50.00;;;;;;;-141.48;100.00;69781.59;5264637;28;20054;-84
2021/12/17 01:07:59;;;;;;;135.18;55.30;;;;;;;-141.48;100.00;69781.59;5264115;28;20078;-85
2021/12/17 01:10:36;;;;;;;51.70;45.38;;;;;;;-141.48;100.00;69781.59;5264460;28;20054;-84
2021/12/17 01:13:08;;;;;;;64.05;44.50;;;;;;;-141.48;100.00;69781.59;5275683;28;20025;-84
2021/12/17 01:15:40;;;;;;;85.53;45.92;;;;;;;-141.48;100.00;69781.59;5272485;28;20064;-84
2021/12/17 01:18:16;;;;;;;102.50;50.95;;;;;;;-141.48;100.00;69781.59;5257985;28;20046;-83
2021/12/17 01:35:21;;;;;;;53.88;39.72;;;;;;;-141.48;100.00;69781.59;5257666;28;20033;-84
2021/12/17 01:42:53;;;;;;;66.40;42.92;;;;;;;-141.48;100.00;69781.59;5257355;28;20430;-83
2021/12/17 01:45:28;;;;;;;46.30;38.17;;;;;;;-141.48;100.00;69781.59;5256711;28;20029;-84
2021/12/17 01:48:02;;;;;;;46.13;37.97;;;;;;;-141.48;100.00;69781.59;5256102;28;20025;-84
2021/12/17 02:01:35;;;;;;;50.13;37.88;;;;;;;-141.48;100.00;69781.59;5256671;28;20110;-85
2021/12/17 02:04:06;;;;;;;42.70;38.63;;;;;;;-141.48;100.00;69781.59;5262274;28;20021;-84
2021/12/17 02:06:38;;;;;;;45.63;37.42;;;;;;;-141.48;100.00;69781.59;5266097;28;20036;-83
2021/12/17 02:09:21;;;;;;;53.08;38.78;;;;;;;-141.48;100.00;69781.59;5267486;28;20054;-84
2021/12/17 02:31:56;;;;;;;61.35;43.05;;;;;;;-141.48;100.00;69781.59;5259515;28;20063;-86
2021/12/17 02:37:14;;;;;;;86.35;37.47;;;;;;;-141.48;100.00;69781.59;5259042;28;20044;-85
2021/12/17 02:47:57;;;;;;;53.65;37.63;;;;;;;-141.48;100.00;69781.59;5258329;28;20032;-86
2021/12/17 02:50:28;;;;;;;64.43;34.80;;;;;;;-141.48;100.00;69781.59;5239735;28;20085;-85
2021/12/17 02:53:01;;;;;;;44.20;37.88;;;;;;;-141.48;100.00;69781.59;5256960;28;20417;-85
2021/12/17 02:55:32;;;;;;;98.55;38.75;;;;;;;-141.48;100.00;69781.59;5238623;28;20020;-85
2021/12/17 02:58:04;;;;;;;67.93;34.38;;;;;;;-141.48;100.00;69781.59;5238420;28;20079;-84
2021/12/17 03:00:37;;;;;;;76.22;36.42;;;;;;;-141.48;100.00;69781.59;5238122;28;20028;-85
2021/12/17 03:03:10;;;;;;;69.65;31.33;;;;;;;-141.48;100.00;69781.59;5257076;28;20375;-86
2021/12/17 03:05:42;;;;;;;59.05;36.15;;;;;;;-141.48;100.00;69781.59;5239076;28;20101;-86
2021/12/17 03:08:15;;;;;;;69.10;36.55;;;;;;;-141.48;100.00;69781.59;5257402;28;20021;-85
2021/12/17 03:10:48;;;;;;;65.70;35.80;;;;;;;-141.48;100.00;69781.59;5255135;28;20147;-84
2021/12/17 03:13:22;;;;;;;69.65;35.92;;;;;;;-141.48;100.00;69781.59;5238124;28;20496;-85
2021/12/17 03:16:09;;;;;;;38.20;34.30;;;;;;;-141.48;100.00;69781.59;5255888;28;20535;-85
2021/12/17 03:24:06;;;;;;;62.42;34.08;;;;;;;-141.48;100.00;69781.59;5260477;28;20089;-84
2021/12/17 03:26:36;;;;;;;36.88;33.50;;;;;;;-141.48;100.00;69781.59;5263659;28;20084;-85
2021/12/17 03:29:08;;;;;;;96.30;38.10;;;;;;;-141.48;100.00;69781.59;5262028;28;20020;-85
2021/12/17 03:31:39;;;;;;;103.43;36.03;;;;;;;-141.48;100.00;69781.59;5261585;28;20016;-86
2021/12/17 03:34:18;;;;;;;54.70;34.13;;;;;;;-141.48;100.00;69781.59;5259980;28;20028;-86
2021/12/17 03:36:56;;;;;;;79.35;37.97;;;;;;;-141.48;100.00;69781.59;5238871;28;20085;-86
2021/12/17 03:39:30;;;;;;;81.97;38.83;;;;;;;-141.48;100.00;69781.59;5256384;28;20526;-86
2021/12/17 03:42:03;;;;;;;80.97;41.25;;;;;;;-141.48;100.00;69781.59;5256685;28;20020;-86
2021/12/17 03:44:33;;;;;;;39.00;35.33;;;;;;;-141.48;100.00;69781.59;5238291;28;20024;-85
2021/12/17 03:47:04;;;;;;;55.92;36.42;;;;;;;-141.48;100.00;69781.59;5238701;28;20027;-85
2021/12/17 03:49:37;;;;;;;52.42;36.38;;;;;;;-141.48;100.00;69781.59;5262481;28;20029;-84
2021/12/17 03:52:07;;;;;;;129.27;38.40;;;;;;;-141.48;100.00;69781.59;5264296;28;20024;-84
2021/12/17 03:54:38;;;;;;;96.63;38.55;;;;;;;-141.48;100.00;69781.59;5263102;28;20028;-85
2021/12/17 03:57:12;;;;;;;50.55;35.00;;;;;;;-141.48;100.00;69781.59;5263075;28;20398;-83
2021/12/17 03:59:42;;;;;;;38.15;34.38;;;;;;;-141.48;100.00;69781.59;5263446;28;20021;-84
2021/12/17 04:02:13;;;;;;;62.50;36.15;;;;;;;-141.48;100.00;69781.59;5262799;28;20027;-84
2021/12/17 04:04:44;;;;;;;105.43;40.38;;;;;;;-141.48;100.00;69781.59;5262587;28;20107;-85
2021/12/17 04:07:14;;;;;;;98.20;38.75;;;;;;;-141.48;100.00;69781.59;5245671;28;20233;-84
2021/12/17 04:09:44;;;;;;;124.65;42.15;;;;;;;-141.48;100.00;69781.59;5262550;28;20020;-86
2021/12/17 04:12:18;;;;;;;79.13;35.40;;;;;;;-141.48;100.00;69781.59;5256139;28;20494;-86
2021/12/17 04:14:49;;;;;;;51.10;36.78;;;;;;;-141.48;100.00;69781.59;5256426;28;20023;-86
2021/12/17 04:17:25;;;;;;;49.30;33.58;;;;;;;-141.48;100.00;69781.59;5256395;28;20028;-84
2021/12/17 04:19:56;;;;;;;55.53;36.63;;;;;;;-141.48;100.00;69781.59;5239626;28;20111;-86
2021/12/17 04:22:26;;;;;;;119.00;41.60;;;;;;;-141.48;100.00;69781.59;5255397;28;20056;-85
2021/12/17 04:24:56;;;;;;;103.60;43.90;;;;;;;-141.48;100.00;69781.59;5254361;28;20025;-85
2021/12/17 04:27:27;;;;;;;142.05;40.25;;;;;;;-141.48;100.00;69781.59;5256498;28;20047;-85
2021/12/17 04:29:58;;;;;;;203.63;48.03;;;;;;;-141.48;100.00;69781.59;5259542;28;20017;-86
2021/12/17 04:32:28;;;;;;;207.85;48.50;;;;;;;-141.48;100.00;69781.59;5261875;28;20020;-85
2021/12/17 04:34:58;;;;;;;111.50;43.08;;;;;;;-141.48;100.00;69781.59;5260951;28;20224;-84
2021/12/17 04:37:29;;;;;;;222.68;56.63;;;;;;;-141.48;100.00;69781.59;5263355;28;20490;-85
2021/12/17 04:40:00;;;;;;;243.60;55.08;;;;;;;-141.48;100.00;69781.59;5262186;28;20105;-85
2021/12/17 04:45:07;;;;;;;329.05;64.97;;;;;;;-141.48;100.00;69781.59;5262884;28;20033;-84
2021/12/17 04:58:55;;;;;;;237.52;55.53;;;;;;;-141.48;100.00;69781.59;5263484;28;20062;-85
2021/12/17 05:01:25;;;;;;;265.15;49.15;;;;;;;-141.48;100.00;69781.59;5261811;28;20087;-83
2021/12/17 05:03:56;;;;;;;196.93;51.47;;;;;;;-141.48;100.00;69781.59;5261355;28;20025;-85
2021/12/17 05:06:29;;;;;;;103.03;40.05;;;;;;;-141.48;100.00;69781.59;5262668;28;20024;-86
2021/12/17 05:09:08;;;;;;;96.50;45.88;;;;;;;-141.48;100.00;69781.59;5262249;28;20043;-86
2021/12/17 05:19:54;;;;;;;128.25;48.50;;;;;;;-141.48;100.00;69781.59;5268208;28;20032;-84
2021/12/17 05:22:27;;;;;;;91.18;42.13;;;;;;;-141.48;100.00;69781.59;5263455;28;20148;-87
2021/12/17 05:24:58;;;;;;;122.47;49.38;;;;;;;-141.48;100.00;69781.59;5262016;28;20031;-84
2021/12/17 05:27:28;;;;;;;89.03;42.42;;;;;;;-141.48;100.00;69781.59;5263955;28;20016;-85
2021/12/17 05:30:00;;;;;;;163.18;54.30;;;;;;;-141.48;100.00;69781.59;5245645;28;20486;-85
2021/12/17 05:32:30;;;;;;;106.90;45.58;;;;;;;-141.48;100.00;69781.59;5264790;28;20104;-84
2021/12/17 05:35:00;;;;;;;91.53;44.90;;;;;;;-141.48;100.00;69781.59;5265958;28;20028;-84
2021/12/17 05:37:31;;;;;;;88.50;43.35;;;;;;;-141.48;100.00;69781.59;5262597;28;20020;-84
2021/12/17 05:40:02;;;;;;;118.25;44.38;;;;;;;-141.48;100.00;69781.59;5262276;28;20029;-86
2021/12/17 05:42:32;;;;;;;58.70;40.40;;;;;;;-141.48;100.00;69781.59;5257256;28;20486;-86
2021/12/17 05:45:09;;;;;;;67.93;43.42;;;;;;;-141.48;100.00;69781.59;5242768;28;20106;-85
2021/12/17 05:47:40;;;;;;;71.63;43.85;;;;;;;-141.48;100.00;69781.59;5261750;28;20028;-84
2021/12/17 05:50:10;;;;;;;76.50;44.33;;;;;;;-141.48;100.00;69781.59;5262148;28;20444;-85
2021/12/17 05:52:40;;;;;;;61.80;46.15;;;;;;;-141.48;100.00;69781.59;5261448;28;20021;-88
2021/12/17 05:55:11;;;;;;;61.15;45.70;;;;;;;-141.48;100.00;69781.59;5258982;28;20024;-84
2021/12/17 05:57:41;;;;;;;50.28;38.83;;;;;;;-141.48;100.00;69781.59;5258743;28;20092;-84
2021/12/17 06:00:12;;;;;;;65.03;43.08;;;;;;;-141.48;100.00;69781.59;5258907;28;20023;-84
2021/12/17 06:02:43;;;;;;;47.53;37.85;;;;;;;-141.48;100.00;69781.59;5259558;28;20497;-84
2021/12/17 06:05:14;;;;;;;62.38;42.28;;;;;;;-141.48;100.00;69781.59;5258289;28;20020;-86
2021/12/17 06:07:44;;;;;;;51.33;39.78;;;;;;;-141.48;100.00;69781.59;5239200;28;20024;-85
2021/12/17 06:10:15;;;;;;;41.03;36.17;;;;;;;-141.48;100.00;69781.59;5258660;28;20051;-86
2021/12/17 06:12:46;;;;;;;58.30;38.78;;;;;;;-141.48;100.00;69781.59;5243070;28;20031;-86
2021/12/17 06:15:18;;;;;;;48.90;39.22;;;;;;;-141.48;100.00;69781.59;5262833;28;20103;-86
2021/12/17 06:17:50;;;;;;;42.25;37.75;;;;;;;-141.48;100.00;69781.59;5262282;28;20028;-86
2021/12/17 06:20:22;;;;;;;46.38;34.80;;;;;;;-141.48;100.00;69781.59;5260915;28;20035;-86
2021/12/17 06:22:52;;;;;;;47.92;38.08;;;;;;;-141.48;100.00;69781.59;5259104;28;20108;-89
2021/12/17 06:25:23;;;;;;;48.97;34.78;;;;;;;-141.48;100.00;69781.59;5258584;28;20052;-85
2021/12/17 06:27:54;;;;;;;41.92;31.95;;;;;;;-141.48;100.00;69781.59;5253716;28;20051;-87
2021/12/17 06:30:24;;;;;;;39.67;35.60;;;;;;;-141.48;100.00;69781.59;5233813;28;20024;-85
2021/12/17 06:32:56;;;;;;;37.75;33.88;;;;;;;-141.48;100.00;69781.59;5233888;28;20016;-86
2021/12/17 06:35:26;;;;;;;38.70;34.72;;;;;;;-141.48;100.00;69781.59;5252206;28;20478;-86
2021/12/17 06:37:57;;;;;;;41.40;35.83;;;;;;;-141.48;100.00;69781.59;5250724;28;20111;-86
2021/12/17 06:40:27;;;;;;;35.95;32.38;;;;;;;-141.48;100.00;69781.59;5230386;28;20028;-88
2021/12/17 06:42:57;;;;;;;36.03;30.85;;;;;;;-141.48;100.00;69781.59;5248880;28;20039;-87
2021/12/17 06:48:14;;;;;;;36.85;33.40;;;;;;;-141.48;100.00;69781.59;5251336;28;20481;-86
2021/12/17 06:59:46;;;;;;;36.83;32.92;;;;;;;-141.48;100.00;69781.59;5253559;28;20038;-80
2021/12/17 07:10:30;;;;;;;38.25;34.28;;;;;;;-141.48;100.00;69781.59;5263059;28;20486;-79
2021/12/17 07:34:43;;;;;;;41.08;36.40;;;;;;;-141.48;100.00;69781.59;5252434;28;20086;-85
2021/12/17 07:39:45;;;;;;;48.03;37.88;;;;;;;-141.48;100.00;69781.59;5249989;28;20470;-85
2021/12/17 07:42:16;;;;;;;45.22;37.10;;;;;;;-141.48;100.00;69781.59;5248269;28;20020;-84
2021/12/17 07:44:46;;;;;;;51.85;41.08;;;;;;;-141.48;100.00;69781.59;5248997;28;20024;-85
2021/12/17 07:47:16;;;;;;;52.53;37.45;;;;;;;-141.48;100.00;69781.59;5248787;28;20028;-87
2021/12/17 07:49:47;;;;;;;48.88;37.90;;;;;;;-141.48;100.00;69781.59;5249347;28;20398;-86
2021/12/17 07:52:18;;;;;;;43.20;38.50;;;;;;;-141.48;100.00;69781.59;5249175;28;20021;-85
2021/12/17 07:54:48;;;;;;;57.42;42.00;;;;;;;-141.48;100.00;69781.59;5231336;28;20501;-85
2021/12/17 07:57:18;;;;;;;46.70;38.72;;;;;;;-141.48;100.00;69781.59;5231207;28;20028;-85
2021/12/17 07:59:49;;;;;;;44.97;40.00;;;;;;;-141.48;100.00;69781.59;5231722;28;20024;-85
2021/12/17 08:02:20;;;;;;;47.10;40.05;;;;;;;-141.48;100.00;69781.59;5252348;28;20133;-84
2021/12/17 08:04:50;;;;;;;51.85;42.00;;;;;;;-141.48;100.00;69781.59;5249640;28;20040;-86
2021/12/17 08:07:20;;;;;;;66.00;41.72;;;;;;;-141.48;100.00;69781.59;5230601;28;20025;-86
2021/12/17 08:09:51;;;;;;;52.80;42.08;;;;;;;-141.48;100.00;69781.59;5231040;28;20107;-87
2021/12/17 08:12:22;;;;;;;55.05;41.45;;;;;;;-141.48;100.00;69781.59;5230754;28;20154;-85
2021/12/17 08:14:53;;;;;;;65.03;41.42;;;;;;;-141.48;100.00;69781.59;5230897;28;20032;-86
2021/12/17 08:29:11;;;;;;;51.03;43.47;;;;;;;-141.48;100.00;69781.59;5232090;28;20107;-87
2021/12/17 08:31:24;;;;;;;58.92;43.65;;;;;;;-141.48;100.00;69781.59;5249555;28;20047;-88
2021/12/17 08:33:55;;;;;;;55.35;43.00;;;;;;;-141.48;100.00;69781.59;5231520;28;20036;-86
2021/12/17 08:36:26;;;;;;;56.08;44.30;;;;;;;-141.48;100.00;69781.59;5249658;28;20371;-87
2021/12/17 08:38:57;;;;;;;65.28;41.22;;;;;;;-141.48;100.00;69781.59;5249708;28;20035;-86
2021/12/17 08:41:28;;;;;;;80.90;42.33;;;;;;;-141.48;100.00;69781.59;5231758;28;20024;-86
2021/12/17 08:43:59;;;;;;;51.35;43.58;;;;;;;-141.48;100.00;69781.59;5230991;28;20025;-86
2021/12/17 08:46:30;;;;;;;64.07;43.70;;;;;;;-141.48;100.00;69781.59;5250039;28;20059;-86
2021/12/17 08:49:01;;;;;;;42.47;38.03;;;;;;;-141.48;100.00;69781.59;5249825;28;20497;-87
2021/12/17 08:51:31;;;;;;;64.90;43.25;;;;;;;-141.48;100.00;69781.59;5249210;28;20112;-86
2021/12/17 08:54:02;;;;;;;51.05;39.08;;;;;;;-141.48;100.00;69781.59;5249427;28;20056;-87
2021/12/17 08:56:35;;;;;;;49.13;41.33;;;;;;;-141.48;100.00;69781.59;5249393;28;20021;-87
2021/12/17 08:59:07;;;;;;;50.72;44.90;;;;;;;-141.48;100.00;69781.59;5231463;28;20521;-86
2021/12/17 09:01:37;;;;;;;66.97;41.22;;;;;;;-141.48;100.00;69781.59;5231319;28;20029;-87
2021/12/17 09:04:08;;;;;;;55.03;39.65;;;;;;;-141.48;100.00;69781.59;5231014;28;20425;-86
2021/12/17 09:06:38;;;;;;;59.72;40.45;;;;;;;-141.48;100.00;69781.59;5233713;28;20025;-84
2021/12/17 09:09:09;;;;;;;43.40;37.00;;;;;;;-141.48;100.00;69781.59;5252231;28;20048;-87
2021/12/17 09:11:39;;;;;;;55.00;43.00;;;;;;;-141.48;100.00;69781.59;5253423;28;20032;-87
2021/12/17 09:14:10;;;;;;;53.95;39.90;;;;;;;-141.48;100.00;69781.59;5239906;28;20366;-88
2021/12/17 09:16:41;;;;;;;56.55;40.47;;;;;;;-141.48;100.00;69781.59;5241887;28;20025;-88
2021/12/17 09:19:11;;;;;;;57.80;39.38;;;;;;;-141.48;100.00;69781.59;5244303;28;20038;-86
2021/12/17 09:21:43;;;;;;;59.92;41.45;;;;;;;-141.48;100.00;69781.59;5243206;28;20016;-87
2021/12/17 09:24:14;;;;;;;58.15;44.80;;;;;;;-141.48;100.00;69781.59;5260497;28;20096;-88
2021/12/17 09:26:44;;;;;;;60.88;42.15;;;;;;;-141.48;100.00;69781.59;5255009;28;20158;-83
2021/12/17 09:29:14;;;;;;;59.75;39.65;;;;;;;-141.48;100.00;69781.59;5253379;28;20051;-83
2021/12/17 09:31:45;;;;;;;57.70;41.47;;;;;;;-141.48;100.00;69781.59;5254602;28;20022;-83
2021/12/17 09:34:16;;;;;;;58.78;41.88;;;;;;;-141.48;100.00;69781.59;5256052;28;20082;-83
2021/12/17 09:36:46;;;;;;;60.95;39.03;;;;;;;-141.48;100.00;69781.59;5255800;28;20390;-83
2021/12/17 09:39:18;;;;;;;59.28;37.85;;;;;;;-141.48;100.00;69781.59;5238792;28;20020;-83
2021/12/17 09:41:50;;;;;;;55.83;41.42;;;;;;;-141.48;100.00;69781.59;5236231;28;20036;-82
2021/12/17 09:44:21;;;;;;;59.22;39.72;;;;;;;-141.48;100.00;69781.59;5252954;28;20105;-83
2021/12/17 09:46:57;;;;;;;51.38;42.15;;;;;;;-141.48;100.00;69781.59;5253134;28;20020;-83
2021/12/17 09:49:27;;;;;;;51.72;38.33;;;;;;;-141.48;100.00;69781.59;5253404;28;20068;-83
2021/12/17 09:51:59;;;;;;;48.25;36.70;;;;;;;-141.48;100.00;69781.59;5252602;28;20012;-83
2021/12/17 09:54:30;;;;;;;49.17;37.20;;;;;;;-141.48;100.00;69781.59;5253369;28;20367;-83
2021/12/17 09:57:00;;;;;;;44.67;39.95;;;;;;;-141.48;100.00;69781.59;5252451;28;20032;-82
2021/12/17 09:59:31;;;;;;;56.25;40.05;;;;;;;-141.48;100.00;69781.59;5253337;28;20066;-83
2021/12/17 10:02:01;;;;;;;66.78;41.80;;;;;;;-141.48;100.00;69781.59;5234587;28;20025;-83
2021/12/17 10:04:32;;;;;;;49.50;37.97;;;;;;;-141.48;100.00;69781.59;5252766;28;20437;-82
2021/12/17 10:07:23;;;;;;;53.38;39.38;;;;;;;-141.48;100.00;69781.59;5255636;28;20099;-83
2021/12/17 10:09:57;;;;;;;41.70;36.00;;;;;;;-141.48;100.00;69781.59;5254512;28;20078;-83
2021/12/17 10:12:32;;;;;;;58.03;36.25;;;;;;;-141.48;100.00;69781.59;5255096;28;20021;-82
2021/12/17 10:15:17;;;;;;;66.32;40.45;;;;;;;-141.48;100.00;69781.59;5255032;28;20493;-84
2021/12/17 10:18:01;;;;;;;62.30;38.35;;;;;;;-141.48;100.00;69781.59;5255816;28;20028;-84
2021/12/17 10:20:34;;;;;;;65.40;39.25;;;;;;;-141.48;100.00;69781.59;5256792;28;20029;-84
2021/12/17 10:23:08;;;;;;;54.35;37.17;;;;;;;-141.48;100.00;69781.59;5237840;28;20035;-84
2021/12/17 10:25:43;;;;;;;66.07;39.30;;;;;;;-141.48;100.00;69781.59;5255770;28;20032;-84
2021/12/17 10:28:14;;;;;;;59.60;40.80;;;;;;;-141.48;100.00;69781.59;5254900;28;20077;-82
2021/12/17 10:30:48;;;;;;;56.33;37.00;;;;;;;-141.48;100.00;69781.59;5255034;28;20028;-82
2021/12/17 10:33:24;;;;;;;59.65;40.50;;;;;;;-141.48;100.00;69781.59;5255866;28;20056;-82
2021/12/17 10:36:02;;;;;;;57.72;36.60;;;;;;;-141.48;100.00;69781.59;5255412;28;20494;-82
2021/12/17 10:38:34;;;;;;;59.45;39.00;;;;;;;-141.48;100.00;69781.59;5255890;28;20494;-83
2021/12/17 10:41:12;;;;;;;53.47;41.10;;;;;;;-141.48;100.00;69781.59;5255881;28;20020;-84
2021/12/17 10:43:49;;;;;;;50.40;36.60;;;;;;;-141.48;100.00;69781.59;5255056;28;20107;-83
2021/12/17 10:46:31;;;;;;;42.58;35.63;;;;;;;-141.48;100.00;69781.59;5255524;28;20035;-83
2021/12/17 10:49:13;;;;;;;44.53;37.67;;;;;;;-141.48;100.00;69781.59;5255389;28;20058;-87
2021/12/17 10:51:47;;;;;;;48.88;35.35;;;;;;;-141.48;100.00;69781.59;5240492;28;20012;-86
2021/12/17 10:54:20;;;;;;;60.25;42.15;;;;;;;-141.48;100.00;69781.59;5259418;28;20013;-85
2021/12/17 10:56:53;;;;;;;44.97;33.67;;;;;;;-141.48;100.00;69781.59;5255508;28;20028;-85
2021/12/17 10:59:34;;;;;;;43.75;36.50;;;;;;;-141.48;100.00;69781.59;5255153;28;20028;-85
2021/12/17 11:02:11;;;;;;;46.45;33.72;;;;;;;-141.48;100.00;69781.59;5255155;28;20031;-85
2021/12/17 11:04:52;;;;;;;52.05;37.53;;;;;;;-141.48;100.00;69781.59;5254053;28;20142;-87
2021/12/17 11:07:22;;;;;;;61.85;38.72;;;;;;;-141.48;100.00;69781.59;5236879;28;20035;-87
2021/12/17 11:09:54;;;;;;;71.15;37.75;;;;;;;-141.48;100.00;69781.59;5254855;28;20498;-87
2021/12/17 11:12:29;;;;;;;43.65;35.65;;;;;;;-141.48;100.00;69781.59;5258129;28;20040;-89
2021/12/17 11:15:18;;;;;;;55.35;35.17;;;;;;;-141.48;100.00;69781.59;5260070;28;20032;-85
2021/12/17 11:17:54;;;;;;;61.47;37.40;;;;;;;-141.48;100.00;69781.59;5242381;28;20048;-87
2021/12/17 11:20:37;;;;;;;51.83;36.65;;;;;;;-141.48;100.00;69781.59;5240941;28;20028;-87
2021/12/17 11:23:13;;;;;;;40.20;33.72;;;;;;;-141.48;100.00;69781.59;5256621;28;20025;-88
2021/12/17 11:25:47;;;;;;;47.08;34.08;;;;;;;-141.48;100.00;69781.59;5258372;28;20024;-86
2021/12/17 11:28:18;;;;;;;47.10;35.13;;;;;;;-141.48;100.00;69781.59;5258506;28;20487;-86
2021/12/17 11:30:50;;;;;;;44.63;32.22;;;;;;;-141.48;100.00;69781.59;5255228;28;20031;-87
2021/12/17 11:33:21;;;;;;;39.47;33.92;;;;;;;-141.48;100.00;69781.59;5253314;28;20066;-87
2021/12/17 11:35:51;;;;;;;56.22;35.90;;;;;;;-141.48;100.00;69781.59;5254044;28;20024;-87
2021/12/17 11:38:40;;;;;;;45.78;33.65;;;;;;;-141.48;100.00;69781.59;5255179;28;20025;-85
2021/12/17 11:41:26;;;;;;;41.70;34.13;;;;;;;-141.48;100.00;69781.59;5255206;28;20161;-87
2021/12/17 11:44:01;;;;;;;43.15;35.47;;;;;;;-141.48;100.00;69781.59;5255333;28;20043;-86
2021/12/17 11:46:33;;;;;;;42.47;36.22;;;;;;;-141.48;100.00;69781.59;5256457;28;20024;-86
2021/12/17 11:49:15;;;;;;;37.90;33.25;;;;;;;-141.48;100.00;69781.59;5256223;28;20028;-86
2021/12/17 11:51:53;;;;;;;39.58;34.30;;;;;;;-141.48;100.00;69781.59;5259454;28;20020;-87
2021/12/17 11:54:31;;;;;;;48.75;34.17;;;;;;;-141.48;100.00;69781.59;5260463;28;20031;-86
2021/12/17 11:57:19;;;;;;;36.53;31.40;;;;;;;-141.48;100.00;69781.59;5261471;28;20029;-85
2021/12/17 11:59:50;;;;;;;40.53;29.33;;;;;;;-141.48;100.00;69781.59;5260257;28;20025;-86
2021/12/17 12:02:23;;;;;;;36.50;32.60;;;;;;;-141.48;100.00;69781.59;5244716;28;20167;-87
2021/12/17 12:04:56;;;;;;;39.13;29.33;;;;;;;-141.48;100.00;69781.59;5262959;28;20027;-87
2021/12/17 12:07:28;;;;;;;36.17;29.33;;;;;;;-141.48;100.00;69781.59;5241562;28;20594;-86
2021/12/17 12:10:21;;;;;;;34.40;26.92;;;;;;;-141.48;100.00;69781.59;5260557;28;20024;-84
2021/12/17 12:12:52;;;;;;;37.25;30.80;;;;;;;-141.48;100.00;69781.59;5260830;28;20055;-84
2021/12/17 12:15:30;;;;;;;43.30;32.25;;;;;;;-141.48;100.00;69781.59;5261686;28;20024;-83
2021/12/17 12:18:06;;;;;;;60.78;31.63;;;;;;;-141.48;100.00;69781.59;5243415;28;20024;-82
2021/12/17 12:20:48;;;;;;;38.13;32.28;;;;;;;-141.48;100.00;69781.59;5260924;28;20020;-83
2021/12/17 12:23:21;;;;;;;30.73;26.77;;;;;;;-141.48;100.00;69781.59;5261049;28;20039;-82
2021/12/17 12:28:49;;;;;;;31.52;26.92;;;;;;;-141.48;100.00;69781.59;5261373;28;20029;-83
2021/12/17 12:31:26;;;;;;;32.00;27.75;;;;;;;-141.48;100.00;69781.59;5260401;28;20063;-83
2021/12/17 12:36:57;;;;;;;41.50;27.95;;;;;;;-141.48;100.00;69781.59;5260373;28;20024;-85
2021/12/17 12:39:35;;;;;;;32.03;24.70;;;;;;;-141.48;100.00;69781.59;5259717;28;20025;-83
2021/12/17 12:42:13;;;;;;;33.00;26.08;;;;;;;-141.48;100.00;69781.59;5260565;28;20051;-85
2021/12/17 12:44:44;;;;;;;28.67;25.63;;;;;;;-141.48;100.00;69781.59;5261069;28;20040;-84
2021/12/17 12:47:20;;;;;;;34.63;28.08;;;;;;;-141.48;100.00;69781.59;5260840;28;20028;-84
2021/12/17 12:49:54;;;;;;;31.67;27.05;;;;;;;-141.48;100.00;69781.59;5244659;28;20032;-84
2021/12/17 12:52:37;;;;;;;30.00;26.35;;;;;;;-141.48;100.00;69781.59;5265501;28;20021;-83
2021/12/17 12:55:11;;;;;;;29.98;26.85;;;;;;;-141.48;100.00;69781.59;5265017;28;20135;-83
2021/12/17 12:57:49;;;;;;;33.00;26.02;;;;;;;-141.48;100.00;69781.59;5267971;28;20024;-84
2021/12/17 13:00:19;;;;;;;30.25;26.52;;;;;;;-141.48;100.00;69781.59;5271299;28;20036;-84
2021/12/17 13:02:56;;;;;;;29.83;24.10;;;;;;;-141.48;100.00;69781.59;5264465;28;20025;-85
2021/12/17 13:05:26;;;;;;;35.13;27.05;;;;;;;-141.48;100.00;69781.59;5262898;28;20024;-84
2021/12/17 13:07:59;;;;;;;38.67;27.83;;;;;;;-141.48;100.00;69781.59;5264051;28;20031;-85
2021/12/17 13:10:43;;;;;;;37.78;28.65;;;;;;;-141.48;100.00;69781.59;5262843;28;20028;-83
2021/12/17 13:13:29;;;;;;;30.75;26.05;;;;;;;-141.48;100.00;69781.59;5243081;28;20033;-86
2021/12/17 13:16:15;;;;;;;29.20;22.20;;;;;;;-141.48;100.00;69781.59;5243328;28;20132;-85
2021/12/17 13:22:54;;;;;;;32.65;26.58;;;;;;;-141.48;100.00;69781.59;5242482;28;20044;-83
2021/12/17 13:24:39;;;;;;;34.03;24.80;;;;;;;-141.48;100.00;69781.59;5238893;28;20033;-83
2021/12/17 13:27:10;;;;;;;36.45;26.08;;;;;;;-141.48;100.00;69781.59;5245749;28;20059;-83
2021/12/17 13:29:44;;;;;;;40.78;24.48;;;;;;;-141.48;100.00;69781.59;5242352;28;20028;-84
2021/12/17 13:32:17;;;;;;;28.77;24.77;;;;;;;-141.48;100.00;69781.59;5244052;28;20074;-84
2021/12/17 13:34:55;;;;;;;25.00;19.67;;;;;;;-141.48;100.00;69781.59;5243753;28;20021;-84
2021/12/17 13:37:30;;;;;;;28.45;23.33;;;;;;;-141.48;100.00;69781.59;5244195;28;20024;-84
2021/12/17 13:40:05;;;;;;;36.13;25.95;;;;;;;-141.48;100.00;69781.59;5243665;28;20021;-84
2021/12/17 13:42:44;;;;;;;31.73;27.30;;;;;;;-141.48;100.00;69781.59;5242865;28;20021;-84
2021/12/17 13:45:19;;;;;;;30.83;22.17;;;;;;;-141.48;100.00;69781.59;5237388;28;20033;-83
2021/12/17 13:47:54;;;;;;;29.55;22.73;;;;;;;-141.48;100.00;69781.59;5236451;28;20036;-83
2021/12/17 13:50:33;;;;;;;27.10;23.10;;;;;;;-141.48;100.00;69781.59;5236213;28;20047;-83
2021/12/17 13:53:15;;;;;;;27.85;23.42;;;;;;;-141.48;100.00;69781.59;5234657;28;20047;-83
2021/12/17 13:55:48;;;;;;;29.58;24.52;;;;;;;-141.48;100.00;69781.59;5218112;28;20387;-83
2021/12/17 13:58:21;;;;;;;24.15;21.83;;;;;;;-141.48;100.00;69781.59;5234492;28;20025;-83
2021/12/17 14:00:56;;;;;;;23.58;19.92;;;;;;;-141.48;100.00;69781.59;5236350;28;20032;-83
2021/12/17 14:03:33;;;;;;;25.70;21.13;;;;;;;-141.48;100.00;69781.59;5234952;28;20028;-83
2021/12/17 14:06:17;;;;;;;26.60;22.63;;;;;;;-141.48;100.00;69781.59;5236009;28;20021;-83
2021/12/17 14:08:48;;;;;;;27.50;20.05;;;;;;;-141.48;100.00;69781.59;5243294;28;20059;-85
2021/12/17 14:11:33;;;;;;;25.85;21.77;;;;;;;-141.48;100.00;69781.59;5242618;28;20025;-85
2021/12/17 14:14:20;;;;;;;26.23;19.52;;;;;;;-141.48;100.00;69781.59;5242340;28;20047;-84
2021/12/17 14:16:59;;;;;;;24.90;18.48;;;;;;;-141.48;100.00;69781.59;5243021;28;20025;-83
2021/12/17 14:19:40;;;;;;;30.25;22.40;;;;;;;-141.48;100.00;69781.59;5242803;28;20032;-84
2021/12/17 14:22:27;;;;;;;23.10;20.83;;;;;;;-141.48;100.00;69781.59;5238241;28;20033;-82
2021/12/17 14:24:59;;;;;;;29.30;19.92;;;;;;;-141.48;100.00;69781.59;5238127;28;20039;-83
2021/12/17 14:28:20;;;;;;;21.65;17.55;;;;;;;-141.48;100.00;69781.59;5240089;28;20509;-83
2021/12/17 14:31:02;;;;;;;23.90;19.55;;;;;;;-141.48;100.00;69781.59;5230473;28;20048;-83